sensor_id;sensor_type;location;lat;lon;timestamp;temperature;humidity
67547;HTU21D;54381;53.516;49.424;2022-07-05T00:00:48;12.86;90.34
67547;HTU21D;54381;53.516;49.424;2022-07-05T00:03:14;12.81;90.63
67547;HTU21D;54381;53.516;49.424;2022-07-05T00:05:41;12.76;89.54
67547;HTU21D;54381;53.516;49.424;2022-07-05T00:08:07;12.71;89.58
67547;HTU21D;54381;53.516;49.424;2022-07-05T00:10:34;12.62;90.17
67547;HTU21D;54381;53.516;49.424;2022-07-05T00:13:02;12.62;90.55
67547;HTU21D;54381;53.516;49.424;2022-07-05T00:15:28;12.64;90.67
67547;HTU21D;54381;53.516;49.424;2022-07-05T00:17:55;12.64;90.25
67547;HTU21D;54381;53.516;49.424;2022-07-05T00:20:21;12.59;89.73
67547;HTU21D;54381;53.516;49.424;2022-07-05T00:22:47;12.52;89.51
67547;HTU21D;54381;53.516;49.424;2022-07-05T00:25:14;12.48;90.47
67547;HTU21D;54381;53.516;49.424;2022-07-05T00:27:41;12.49;89.70
67547;HTU21D;54381;53.516;49.424;2022-07-05T00:30:08;12.45;89.70
67547;HTU21D;54381;53.516;49.424;2022-07-05T00:32:35;12.36;89.31
67547;HTU21D;54381;53.516;49.424;2022-07-05T00:35:03;12.32;89.32
67547;HTU21D;54381;53.516;49.424;2022-07-05T00:37:29;12.32;89.92
67547;HTU21D;54381;53.516;49.424;2022-07-05T00:39:56;12.29;89.56
67547;HTU21D;54381;53.516;49.424;2022-07-05T00:42:22;12.31;89.32
67547;HTU21D;54381;53.516;49.424;2022-07-05T00:44:48;12.34;87.90
67547;HTU21D;54381;53.516;49.424;2022-07-05T00:47:15;12.30;88.02
67547;HTU21D;54381;53.516;49.424;2022-07-05T00:49:41;12.37;88.47
67547;HTU21D;54381;53.516;49.424;2022-07-05T00:52:08;12.34;87.24
67547;HTU21D;54381;53.516;49.424;2022-07-05T00:54:37;12.40;87.97
67547;HTU21D;54381;53.516;49.424;2022-07-05T00:57:04;12.41;86.37
67547;HTU21D;54381;53.516;49.424;2022-07-05T00:59:30;12.37;86.09
67547;HTU21D;54381;53.516;49.424;2022-07-05T01:01:58;12.38;85.95
67547;HTU21D;54381;53.516;49.424;2022-07-05T01:04:24;12.38;85.47
67547;HTU21D;54381;53.516;49.424;2022-07-05T01:06:51;12.36;85.40
67547;HTU21D;54381;53.516;49.424;2022-07-05T01:09:19;12.40;85.00
67547;HTU21D;54381;53.516;49.424;2022-07-05T01:11:47;12.36;84.88
67547;HTU21D;54381;53.516;49.424;2022-07-05T01:14:17;12.38;83.94
67547;HTU21D;54381;53.516;49.424;2022-07-05T01:16:44;12.46;84.32
67547;HTU21D;54381;53.516;49.424;2022-07-05T01:19:11;12.56;83.63
67547;HTU21D;54381;53.516;49.424;2022-07-05T01:21:44;12.59;83.48
67547;HTU21D;54381;53.516;49.424;2022-07-05T01:24:14;12.70;81.85
67547;HTU21D;54381;53.516;49.424;2022-07-05T01:26:44;12.84;81.34
67547;HTU21D;54381;53.516;49.424;2022-07-05T01:29:10;13.07;80.24
67547;HTU21D;54381;53.516;49.424;2022-07-05T01:31:38;13.51;76.60
67547;HTU21D;54381;53.516;49.424;2022-07-05T01:34:05;14.27;72.62
67547;HTU21D;54381;53.516;49.424;2022-07-05T01:36:32;14.59;70.71
67547;HTU21D;54381;53.516;49.424;2022-07-05T01:39:01;14.42;72.35
67547;HTU21D;54381;53.516;49.424;2022-07-05T01:41:27;15.06;69.90
67547;HTU21D;54381;53.516;49.424;2022-07-05T01:43:54;15.91;66.73
67547;HTU21D;54381;53.516;49.424;2022-07-05T01:46:21;17.36;61.54
67547;HTU21D;54381;53.516;49.424;2022-07-05T01:48:49;18.63;56.78
67547;HTU21D;54381;53.516;49.424;2022-07-05T01:51:21;19.53;54.18
67547;HTU21D;54381;53.516;49.424;2022-07-05T01:53:52;19.57;53.33
67547;HTU21D;54381;53.516;49.424;2022-07-05T01:56:19;19.69;52.65
67547;HTU21D;54381;53.516;49.424;2022-07-05T01:58:46;19.32;54.49
67547;HTU21D;54381;53.516;49.424;2022-07-05T02:01:12;20.10;52.11
67547;HTU21D;54381;53.516;49.424;2022-07-05T02:03:40;20.61;49.73
67547;HTU21D;54381;53.516;49.424;2022-07-05T02:06:06;21.07;48.84
67547;HTU21D;54381;53.516;49.424;2022-07-05T02:08:34;21.25;48.07
67547;HTU21D;54381;53.516;49.424;2022-07-05T02:11:00;21.85;46.73
67547;HTU21D;54381;53.516;49.424;2022-07-05T02:13:26;22.11;46.22
67547;HTU21D;54381;53.516;49.424;2022-07-05T02:15:53;22.47;45.61
67547;HTU21D;54381;53.516;49.424;2022-07-05T02:18:19;22.94;44.19
67547;HTU21D;54381;53.516;49.424;2022-07-05T02:20:45;23.27;42.95
67547;HTU21D;54381;53.516;49.424;2022-07-05T02:23:11;23.58;42.32
67547;HTU21D;54381;53.516;49.424;2022-07-05T02:25:37;22.95;43.94
67547;HTU21D;54381;53.516;49.424;2022-07-05T02:28:04;23.03;42.81
67547;HTU21D;54381;53.516;49.424;2022-07-05T02:30:30;23.69;42.55
67547;HTU21D;54381;53.516;49.424;2022-07-05T02:32:57;23.85;41.37
67547;HTU21D;54381;53.516;49.424;2022-07-05T02:35:23;24.64;38.94
67547;HTU21D;54381;53.516;49.424;2022-07-05T02:37:49;24.57;39.80
67547;HTU21D;54381;53.516;49.424;2022-07-05T02:40:15;25.32;38.72
67547;HTU21D;54381;53.516;49.424;2022-07-05T02:42:42;25.74;36.61
67547;HTU21D;54381;53.516;49.424;2022-07-05T02:45:08;24.55;40.25
67547;HTU21D;54381;53.516;49.424;2022-07-05T02:47:34;24.80;39.25
67547;HTU21D;54381;53.516;49.424;2022-07-05T02:50:08;25.06;38.85
67547;HTU21D;54381;53.516;49.424;2022-07-05T02:52:35;25.40;38.43
67547;HTU21D;54381;53.516;49.424;2022-07-05T02:55:04;25.17;38.57
67547;HTU21D;54381;53.516;49.424;2022-07-05T02:57:30;25.07;38.29
67547;HTU21D;54381;53.516;49.424;2022-07-05T02:59:57;25.71;37.39
67547;HTU21D;54381;53.516;49.424;2022-07-05T03:02:23;26.12;36.76
67547;HTU21D;54381;53.516;49.424;2022-07-05T03:04:50;25.63;37.34
67547;HTU21D;54381;53.516;49.424;2022-07-05T03:07:16;25.39;38.23
67547;HTU21D;54381;53.516;49.424;2022-07-05T03:09:42;25.34;38.63
67547;HTU21D;54381;53.516;49.424;2022-07-05T03:12:09;25.58;37.52
67547;HTU21D;54381;53.516;49.424;2022-07-05T03:14:35;25.19;39.29
67547;HTU21D;54381;53.516;49.424;2022-07-05T03:17:01;25.13;38.67
67547;HTU21D;54381;53.516;49.424;2022-07-05T03:19:27;25.05;38.58
67547;HTU21D;54381;53.516;49.424;2022-07-05T03:21:54;25.71;37.52
67547;HTU21D;54381;53.516;49.424;2022-07-05T03:24:20;26.17;36.74
67547;HTU21D;54381;53.516;49.424;2022-07-05T03:26:46;25.50;37.29
67547;HTU21D;54381;53.516;49.424;2022-07-05T03:29:12;25.33;37.95
67547;HTU21D;54381;53.516;49.424;2022-07-05T03:31:38;25.43;37.85
67547;HTU21D;54381;53.516;49.424;2022-07-05T03:34:05;24.47;39.62
67547;HTU21D;54381;53.516;49.424;2022-07-05T03:36:31;24.16;39.17
67547;HTU21D;54381;53.516;49.424;2022-07-05T03:38:57;24.58;38.51
67547;HTU21D;54381;53.516;49.424;2022-07-05T03:41:23;26.15;36.87
67547;HTU21D;54381;53.516;49.424;2022-07-05T03:43:49;27.55;32.58
67547;HTU21D;54381;53.516;49.424;2022-07-05T03:46:16;26.77;33.34
67547;HTU21D;54381;53.516;49.424;2022-07-05T03:48:42;26.33;35.21
67547;HTU21D;54381;53.516;49.424;2022-07-05T03:51:08;27.16;32.40
67547;HTU21D;54381;53.516;49.424;2022-07-05T03:53:34;27.57;32.37
67547;HTU21D;54381;53.516;49.424;2022-07-05T03:56:01;28.62;30.87
67547;HTU21D;54381;53.516;49.424;2022-07-05T03:58:27;28.61;30.47
67547;HTU21D;54381;53.516;49.424;2022-07-05T04:00:53;27.57;31.72
67547;HTU21D;54381;53.516;49.424;2022-07-05T04:03:19;27.36;32.08
67547;HTU21D;54381;53.516;49.424;2022-07-05T04:05:46;27.84;31.18
67547;HTU21D;54381;53.516;49.424;2022-07-05T04:08:12;28.75;28.91
67547;HTU21D;54381;53.516;49.424;2022-07-05T04:10:38;28.24;30.63
67547;HTU21D;54381;53.516;49.424;2022-07-05T04:13:04;28.75;31.02
67547;HTU21D;54381;53.516;49.424;2022-07-05T04:15:31;28.87;29.76
67547;HTU21D;54381;53.516;49.424;2022-07-05T04:17:57;29.44;28.26
67547;HTU21D;54381;53.516;49.424;2022-07-05T04:20:23;28.60;29.05
67547;HTU21D;54381;53.516;49.424;2022-07-05T04:22:51;27.41;30.61
67547;HTU21D;54381;53.516;49.424;2022-07-05T04:25:17;28.32;30.94
67547;HTU21D;54381;53.516;49.424;2022-07-05T04:27:52;28.33;28.94
67547;HTU21D;54381;53.516;49.424;2022-07-05T04:30:23;28.24;28.00
67547;HTU21D;54381;53.516;49.424;2022-07-05T04:32:50;28.50;27.31
67547;HTU21D;54381;53.516;49.424;2022-07-05T04:35:16;29.07;26.88
67547;HTU21D;54381;53.516;49.424;2022-07-05T04:37:43;28.97;26.71
67547;HTU21D;54381;53.516;49.424;2022-07-05T04:40:11;28.67;26.80
67547;HTU21D;54381;53.516;49.424;2022-07-05T04:42:38;28.28;27.44
67547;HTU21D;54381;53.516;49.424;2022-07-05T04:45:05;28.69;26.60
67547;HTU21D;54381;53.516;49.424;2022-07-05T04:47:32;27.59;28.43
67547;HTU21D;54381;53.516;49.424;2022-07-05T04:49:58;27.82;28.48
67547;HTU21D;54381;53.516;49.424;2022-07-05T04:52:25;28.76;26.62
67547;HTU21D;54381;53.516;49.424;2022-07-05T04:54:51;28.57;26.75
67547;HTU21D;54381;53.516;49.424;2022-07-05T04:57:17;28.97;26.32
67547;HTU21D;54381;53.516;49.424;2022-07-05T04:59:44;28.00;26.87
67547;HTU21D;54381;53.516;49.424;2022-07-05T05:02:10;28.12;25.93
67547;HTU21D;54381;53.516;49.424;2022-07-05T05:04:36;27.73;27.07
67547;HTU21D;54381;53.516;49.424;2022-07-05T05:07:02;28.33;26.10
67547;HTU21D;54381;53.516;49.424;2022-07-05T05:09:29;28.10;26.40
67547;HTU21D;54381;53.516;49.424;2022-07-05T05:11:55;28.98;25.00
67547;HTU21D;54381;53.516;49.424;2022-07-05T05:14:21;28.74;24.31
67547;HTU21D;54381;53.516;49.424;2022-07-05T05:16:48;27.83;26.36
67547;HTU21D;54381;53.516;49.424;2022-07-05T05:19:14;27.46;27.07
67547;HTU21D;54381;53.516;49.424;2022-07-05T05:21:40;27.90;26.65
67547;HTU21D;54381;53.516;49.424;2022-07-05T05:24:07;28.83;25.85
67547;HTU21D;54381;53.516;49.424;2022-07-05T05:26:33;28.29;25.87
67547;HTU21D;54381;53.516;49.424;2022-07-05T05:28:59;28.32;25.83
67547;HTU21D;54381;53.516;49.424;2022-07-05T05:31:25;28.08;25.44
67547;HTU21D;54381;53.516;49.424;2022-07-05T05:33:52;28.35;25.95
67547;HTU21D;54381;53.516;49.424;2022-07-05T05:36:18;28.38;24.36
67547;HTU21D;54381;53.516;49.424;2022-07-05T05:38:44;27.72;25.23
67547;HTU21D;54381;53.516;49.424;2022-07-05T05:41:10;28.09;25.24
67547;HTU21D;54381;53.516;49.424;2022-07-05T05:43:37;28.26;24.85
67547;HTU21D;54381;53.516;49.424;2022-07-05T05:46:03;28.63;25.46
67547;HTU21D;54381;53.516;49.424;2022-07-05T05:48:29;29.43;22.52
67547;HTU21D;54381;53.516;49.424;2022-07-05T05:50:55;30.44;22.54
67547;HTU21D;54381;53.516;49.424;2022-07-05T05:53:22;29.06;23.11
67547;HTU21D;54381;53.516;49.424;2022-07-05T05:55:48;28.76;23.51
67547;HTU21D;54381;53.516;49.424;2022-07-05T05:58:17;28.71;23.27
67547;HTU21D;54381;53.516;49.424;2022-07-05T06:00:44;29.19;23.05
67547;HTU21D;54381;53.516;49.424;2022-07-05T06:03:16;29.30;22.54
67547;HTU21D;54381;53.516;49.424;2022-07-05T06:05:42;28.46;23.45
67547;HTU21D;54381;53.516;49.424;2022-07-05T06:08:09;28.11;24.92
67547;HTU21D;54381;53.516;49.424;2022-07-05T06:10:35;29.06;23.60
67547;HTU21D;54381;53.516;49.424;2022-07-05T06:13:04;29.13;23.06
67547;HTU21D;54381;53.516;49.424;2022-07-05T06:15:31;29.28;23.15
67547;HTU21D;54381;53.516;49.424;2022-07-05T06:17:57;29.51;22.56
67547;HTU21D;54381;53.516;49.424;2022-07-05T06:20:26;29.32;21.98
67547;HTU21D;54381;53.516;49.424;2022-07-05T06:22:52;29.06;22.03
67547;HTU21D;54381;53.516;49.424;2022-07-05T06:25:19;28.85;22.24
67547;HTU21D;54381;53.516;49.424;2022-07-05T06:27:53;29.12;21.79
67547;HTU21D;54381;53.516;49.424;2022-07-05T06:30:21;29.13;23.04
67547;HTU21D;54381;53.516;49.424;2022-07-05T06:32:48;28.38;23.87
67547;HTU21D;54381;53.516;49.424;2022-07-05T06:35:15;27.67;24.22
67547;HTU21D;54381;53.516;49.424;2022-07-05T06:40:17;29.04;22.84
67547;HTU21D;54381;53.516;49.424;2022-07-05T06:42:44;29.03;22.87
67547;HTU21D;54381;53.516;49.424;2022-07-05T06:45:10;28.55;23.41
67547;HTU21D;54381;53.516;49.424;2022-07-05T06:47:36;28.13;23.92
67547;HTU21D;54381;53.516;49.424;2022-07-05T06:50:04;28.14;24.20
67547;HTU21D;54381;53.516;49.424;2022-07-05T06:52:31;27.53;23.77
67547;HTU21D;54381;53.516;49.424;2022-07-05T06:55:01;27.27;24.37
67547;HTU21D;54381;53.516;49.424;2022-07-05T06:57:27;27.58;24.72
67547;HTU21D;54381;53.516;49.424;2022-07-05T06:59:54;27.60;24.14
67547;HTU21D;54381;53.516;49.424;2022-07-05T07:02:21;28.25;23.75
67547;HTU21D;54381;53.516;49.424;2022-07-05T07:04:48;27.86;23.66
67547;HTU21D;54381;53.516;49.424;2022-07-05T07:07:14;27.88;24.37
67547;HTU21D;54381;53.516;49.424;2022-07-05T07:10:00;28.90;24.30
67547;HTU21D;54381;53.516;49.424;2022-07-05T07:12:27;29.33;23.21
67547;HTU21D;54381;53.516;49.424;2022-07-05T07:14:56;28.43;23.18
67547;HTU21D;54381;53.516;49.424;2022-07-05T07:17:23;27.73;24.27
67547;HTU21D;54381;53.516;49.424;2022-07-05T07:19:50;28.27;22.69
67547;HTU21D;54381;53.516;49.424;2022-07-05T07:22:16;28.01;23.90
67547;HTU21D;54381;53.516;49.424;2022-07-05T07:24:42;27.42;23.77
67547;HTU21D;54381;53.516;49.424;2022-07-05T07:27:09;27.07;25.14
67547;HTU21D;54381;53.516;49.424;2022-07-05T07:29:36;27.63;24.62
67547;HTU21D;54381;53.516;49.424;2022-07-05T07:32:04;27.64;24.09
67547;HTU21D;54381;53.516;49.424;2022-07-05T07:34:31;28.55;24.36
67547;HTU21D;54381;53.516;49.424;2022-07-05T07:36:58;24.78;30.39
67547;HTU21D;54381;53.516;49.424;2022-07-05T07:39:25;22.60;34.71
67547;HTU21D;54381;53.516;49.424;2022-07-05T07:41:52;22.63;35.08
67547;HTU21D;54381;53.516;49.424;2022-07-05T07:44:19;21.67;35.71
67547;HTU21D;54381;53.516;49.424;2022-07-05T07:46:46;22.82;33.45
67547;HTU21D;54381;53.516;49.424;2022-07-05T07:49:12;23.29;32.66
67547;HTU21D;54381;53.516;49.424;2022-07-05T07:51:39;24.77;29.61
67547;HTU21D;54381;53.516;49.424;2022-07-05T07:54:06;25.43;27.23
67547;HTU21D;54381;53.516;49.424;2022-07-05T07:56:32;25.87;27.17
67547;HTU21D;54381;53.516;49.424;2022-07-05T07:58:58;26.38;26.87
67547;HTU21D;54381;53.516;49.424;2022-07-05T08:01:25;26.60;25.85
67547;HTU21D;54381;53.516;49.424;2022-07-05T08:03:51;26.35;26.00
67547;HTU21D;54381;53.516;49.424;2022-07-05T08:06:17;26.17;26.56
67547;HTU21D;54381;53.516;49.424;2022-07-05T08:08:44;26.80;26.48
67547;HTU21D;54381;53.516;49.424;2022-07-05T08:11:12;26.96;26.25
67547;HTU21D;54381;53.516;49.424;2022-07-05T08:13:39;27.58;25.84
67547;HTU21D;54381;53.516;49.424;2022-07-05T08:16:07;28.21;25.49
67547;HTU21D;54381;53.516;49.424;2022-07-05T08:18:33;27.24;24.53
67547;HTU21D;54381;53.516;49.424;2022-07-05T08:21:18;26.57;27.30
67547;HTU21D;54381;53.516;49.424;2022-07-05T08:23:58;24.53;31.28
67547;HTU21D;54381;53.516;49.424;2022-07-05T08:26:26;23.80;33.29
67547;HTU21D;54381;53.516;49.424;2022-07-05T08:28:52;24.80;30.05
67547;HTU21D;54381;53.516;49.424;2022-07-05T08:31:19;25.04;30.72
67547;HTU21D;54381;53.516;49.424;2022-07-05T08:33:46;24.62;31.67
67547;HTU21D;54381;53.516;49.424;2022-07-05T08:36:13;23.81;33.25
67547;HTU21D;54381;53.516;49.424;2022-07-05T08:38:39;22.79;35.21
67547;HTU21D;54381;53.516;49.424;2022-07-05T08:41:08;21.97;36.56
67547;HTU21D;54381;53.516;49.424;2022-07-05T08:43:37;22.01;36.79
67547;HTU21D;54381;53.516;49.424;2022-07-05T08:46:05;22.02;36.88
67547;HTU21D;54381;53.516;49.424;2022-07-05T08:48:36;21.61;38.31
67547;HTU21D;54381;53.516;49.424;2022-07-05T08:51:13;21.78;38.51
67547;HTU21D;54381;53.516;49.424;2022-07-05T08:53:40;22.16;36.89
67547;HTU21D;54381;53.516;49.424;2022-07-05T08:56:08;22.25;38.26
67547;HTU21D;54381;53.516;49.424;2022-07-05T08:58:36;21.77;38.90
67547;HTU21D;54381;53.516;49.424;2022-07-05T09:01:03;21.08;39.88
67547;HTU21D;54381;53.516;49.424;2022-07-05T09:03:33;20.78;41.34
67547;HTU21D;54381;53.516;49.424;2022-07-05T09:06:03;21.07;41.26
67547;HTU21D;54381;53.516;49.424;2022-07-05T09:08:30;21.51;39.97
67547;HTU21D;54381;53.516;49.424;2022-07-05T09:11:06;21.45;38.94
67547;HTU21D;54381;53.516;49.424;2022-07-05T09:13:34;21.72;38.61
67547;HTU21D;54381;53.516;49.424;2022-07-05T09:16:01;21.65;38.91
67547;HTU21D;54381;53.516;49.424;2022-07-05T09:18:44;21.75;38.93
67547;HTU21D;54381;53.516;49.424;2022-07-05T09:21:32;21.77;39.10
67547;HTU21D;54381;53.516;49.424;2022-07-05T09:24:01;21.62;38.94
67547;HTU21D;54381;53.516;49.424;2022-07-05T09:26:47;21.61;40.16
67547;HTU21D;54381;53.516;49.424;2022-07-05T09:29:18;21.69;38.62
67547;HTU21D;54381;53.516;49.424;2022-07-05T09:31:47;21.61;39.97
67547;HTU21D;54381;53.516;49.424;2022-07-05T09:34:17;21.54;39.71
67547;HTU21D;54381;53.516;49.424;2022-07-05T09:37:03;21.54;40.59
67547;HTU21D;54381;53.516;49.424;2022-07-05T09:42:17;20.03;43.33
67547;HTU21D;54381;53.516;49.424;2022-07-05T09:47:17;20.46;43.06
67547;HTU21D;54381;53.516;49.424;2022-07-05T09:49:48;21.07;40.86
67547;HTU21D;54381;53.516;49.424;2022-07-05T09:52:35;20.91;40.55
67547;HTU21D;54381;53.516;49.424;2022-07-05T09:55:08;20.69;41.10
67547;HTU21D;54381;53.516;49.424;2022-07-05T09:57:39;20.34;43.03
67547;HTU21D;54381;53.516;49.424;2022-07-05T10:00:10;20.13;44.34
67547;HTU21D;54381;53.516;49.424;2022-07-05T10:02:56;20.28;44.20
67547;HTU21D;54381;53.516;49.424;2022-07-05T10:05:32;21.11;42.22
67547;HTU21D;54381;53.516;49.424;2022-07-05T10:08:00;21.75;40.70
67547;HTU21D;54381;53.516;49.424;2022-07-05T10:10:31;21.75;40.03
67547;HTU21D;54381;53.516;49.424;2022-07-05T10:12:59;21.76;38.95
67547;HTU21D;54381;53.516;49.424;2022-07-05T10:15:30;21.54;39.07
67547;HTU21D;54381;53.516;49.424;2022-07-05T10:18:07;21.38;38.44
67547;HTU21D;54381;53.516;49.424;2022-07-05T10:23:14;21.78;38.85
67547;HTU21D;54381;53.516;49.424;2022-07-05T10:25:42;21.17;39.82
67547;HTU21D;54381;53.516;49.424;2022-07-05T10:28:10;20.34;40.46
67547;HTU21D;54381;53.516;49.424;2022-07-05T10:30:36;20.21;42.29
67547;HTU21D;54381;53.516;49.424;2022-07-05T10:33:05;20.93;41.31
67547;HTU21D;54381;53.516;49.424;2022-07-05T10:35:32;21.02;41.30
67547;HTU21D;54381;53.516;49.424;2022-07-05T10:37:59;20.75;42.58
67547;HTU21D;54381;53.516;49.424;2022-07-05T10:40:26;20.70;42.94
67547;HTU21D;54381;53.516;49.424;2022-07-05T10:42:59;20.34;42.88
67547;HTU21D;54381;53.516;49.424;2022-07-05T10:45:34;20.68;42.79
67547;HTU21D;54381;53.516;49.424;2022-07-05T10:50:57;21.23;40.30
67547;HTU21D;54381;53.516;49.424;2022-07-05T10:56:11;21.46;40.43
67547;HTU21D;54381;53.516;49.424;2022-07-05T10:58:42;21.38;41.70
67547;HTU21D;54381;53.516;49.424;2022-07-05T11:06:43;21.19;42.75
67547;HTU21D;54381;53.516;49.424;2022-07-05T11:11:49;20.79;43.75
67547;HTU21D;54381;53.516;49.424;2022-07-05T11:17:17;20.88;42.38
67547;HTU21D;54381;53.516;49.424;2022-07-05T11:20:44;21.04;41.67
67547;HTU21D;54381;53.516;49.424;2022-07-05T11:25:43;21.83;38.86
67547;HTU21D;54381;53.516;49.424;2022-07-05T11:28:20;21.19;40.41
67547;HTU21D;54381;53.516;49.424;2022-07-05T11:30:59;20.85;42.37
67547;HTU21D;54381;53.516;49.424;2022-07-05T11:33:30;20.94;42.51
67547;HTU21D;54381;53.516;49.424;2022-07-05T11:35:57;21.31;39.90
67547;HTU21D;54381;53.516;49.424;2022-07-05T11:38:24;21.25;38.74
67547;HTU21D;54381;53.516;49.424;2022-07-05T11:40:50;21.27;39.41
67547;HTU21D;54381;53.516;49.424;2022-07-05T11:43:28;21.55;39.00
67547;HTU21D;54381;53.516;49.424;2022-07-05T11:45:56;21.81;38.79
67547;HTU21D;54381;53.516;49.424;2022-07-05T11:48:25;21.23;41.28
67547;HTU21D;54381;53.516;49.424;2022-07-05T11:50:51;20.81;42.00
67547;HTU21D;54381;53.516;49.424;2022-07-05T11:53:30;20.94;42.22
67547;HTU21D;54381;53.516;49.424;2022-07-05T11:55:58;21.22;40.12
67547;HTU21D;54381;53.516;49.424;2022-07-05T11:58:32;21.50;38.57
67547;HTU21D;54381;53.516;49.424;2022-07-05T12:00:59;21.46;39.03
67547;HTU21D;54381;53.516;49.424;2022-07-05T12:03:28;21.59;39.69
67547;HTU21D;54381;53.516;49.424;2022-07-05T12:05:57;21.69;41.04
67547;HTU21D;54381;53.516;49.424;2022-07-05T12:08:28;21.35;40.70
67547;HTU21D;54381;53.516;49.424;2022-07-05T12:11:00;21.64;41.23
67547;HTU21D;54381;53.516;49.424;2022-07-05T12:13:56;21.44;39.40
67547;HTU21D;54381;53.516;49.424;2022-07-05T12:16:26;20.83;40.78
67547;HTU21D;54381;53.516;49.424;2022-07-05T12:18:57;20.87;41.45
67547;HTU21D;54381;53.516;49.424;2022-07-05T12:21:35;21.05;41.07
67547;HTU21D;54381;53.516;49.424;2022-07-05T12:24:09;21.24;40.71
67547;HTU21D;54381;53.516;49.424;2022-07-05T12:26:48;21.11;39.92
67547;HTU21D;54381;53.516;49.424;2022-07-05T12:29:24;20.91;41.04
67547;HTU21D;54381;53.516;49.424;2022-07-05T12:32:07;20.96;40.31
67547;HTU21D;54381;53.516;49.424;2022-07-05T12:34:40;20.86;40.90
67547;HTU21D;54381;53.516;49.424;2022-07-05T12:37:31;20.88;41.21
67547;HTU21D;54381;53.516;49.424;2022-07-05T12:40:08;21.03;41.52
67547;HTU21D;54381;53.516;49.424;2022-07-05T12:46:03;20.28;43.58
67547;HTU21D;54381;53.516;49.424;2022-07-05T12:48:38;20.15;42.94
67547;HTU21D;54381;53.516;49.424;2022-07-05T12:54:29;20.65;42.19
67547;HTU21D;54381;53.516;49.424;2022-07-05T12:57:38;20.75;42.26
67547;HTU21D;54381;53.516;49.424;2022-07-05T13:00:38;20.85;42.70
67547;HTU21D;54381;53.516;49.424;2022-07-05T13:03:18;20.54;41.78
67547;HTU21D;54381;53.516;49.424;2022-07-05T13:06:15;20.30;41.97
67547;HTU21D;54381;53.516;49.424;2022-07-05T13:08:57;20.27;41.55
67547;HTU21D;54381;53.516;49.424;2022-07-05T13:11:36;20.42;41.87
67547;HTU21D;54381;53.516;49.424;2022-07-05T13:14:21;20.60;42.16
67547;HTU21D;54381;53.516;49.424;2022-07-05T13:16:59;20.66;41.57
67547;HTU21D;54381;53.516;49.424;2022-07-05T13:19:38;20.88;43.67
67547;HTU21D;54381;53.516;49.424;2022-07-05T13:22:30;20.80;41.83
67547;HTU21D;54381;53.516;49.424;2022-07-05T13:24:59;20.63;40.69
67547;HTU21D;54381;53.516;49.424;2022-07-05T13:27:26;20.53;41.97
67547;HTU21D;54381;53.516;49.424;2022-07-05T13:29:52;20.42;41.78
67547;HTU21D;54381;53.516;49.424;2022-07-05T13:32:19;20.48;41.77
67547;HTU21D;54381;53.516;49.424;2022-07-05T13:34:48;20.61;42.40
67547;HTU21D;54381;53.516;49.424;2022-07-05T13:37:16;20.62;41.10
67547;HTU21D;54381;53.516;49.424;2022-07-05T13:39:42;20.39;42.28
67547;HTU21D;54381;53.516;49.424;2022-07-05T13:42:09;20.28;41.67
67547;HTU21D;54381;53.516;49.424;2022-07-05T13:44:36;20.24;42.13
67547;HTU21D;54381;53.516;49.424;2022-07-05T13:47:03;20.34;42.77
67547;HTU21D;54381;53.516;49.424;2022-07-05T13:49:33;20.31;41.85
67547;HTU21D;54381;53.516;49.424;2022-07-05T13:51:59;20.26;41.81
67547;HTU21D;54381;53.516;49.424;2022-07-05T13:54:30;20.31;42.06
67547;HTU21D;54381;53.516;49.424;2022-07-05T13:57:12;20.39;43.10
67547;HTU21D;54381;53.516;49.424;2022-07-05T13:59:41;20.36;42.10
67547;HTU21D;54381;53.516;49.424;2022-07-05T14:02:07;20.30;43.00
67547;HTU21D;54381;53.516;49.424;2022-07-05T14:04:34;20.26;41.60
67547;HTU21D;54381;53.516;49.424;2022-07-05T14:07:04;20.14;41.60
67547;HTU21D;54381;53.516;49.424;2022-07-05T14:09:33;20.10;42.54
67547;HTU21D;54381;53.516;49.424;2022-07-05T14:12:02;20.04;40.77
67547;HTU21D;54381;53.516;49.424;2022-07-05T14:14:28;19.99;41.05
67547;HTU21D;54381;53.516;49.424;2022-07-05T14:16:55;19.99;40.85
67547;HTU21D;54381;53.516;49.424;2022-07-05T14:19:27;20.00;41.02
67547;HTU21D;54381;53.516;49.424;2022-07-05T14:22:01;20.01;41.57
67547;HTU21D;54381;53.516;49.424;2022-07-05T14:24:30;20.06;42.00
67547;HTU21D;54381;53.516;49.424;2022-07-05T14:27:00;20.04;41.72
67547;HTU21D;54381;53.516;49.424;2022-07-05T14:29:30;20.04;42.19
67547;HTU21D;54381;53.516;49.424;2022-07-05T14:32:14;19.92;41.53
67547;HTU21D;54381;53.516;49.424;2022-07-05T14:34:52;19.90;42.19
67547;HTU21D;54381;53.516;49.424;2022-07-05T14:37:19;19.85;42.53
67547;HTU21D;54381;53.516;49.424;2022-07-05T14:39:47;19.86;43.08
67547;HTU21D;54381;53.516;49.424;2022-07-05T14:42:19;19.86;42.87
67547;HTU21D;54381;53.516;49.424;2022-07-05T14:45:08;19.91;43.89
67547;HTU21D;54381;53.516;49.424;2022-07-05T14:47:43;20.14;49.41
67547;HTU21D;54381;53.516;49.424;2022-07-05T14:50:21;20.17;43.40
67547;HTU21D;54381;53.516;49.424;2022-07-05T14:52:58;20.02;41.55
67547;HTU21D;54381;53.516;49.424;2022-07-05T14:55:31;19.79;42.93
67547;HTU21D;54381;53.516;49.424;2022-07-05T14:58:23;19.81;43.32
67547;HTU21D;54381;53.516;49.424;2022-07-05T15:04:23;19.80;42.75
67547;HTU21D;54381;53.516;49.424;2022-07-05T15:06:57;19.82;45.04
67547;HTU21D;54381;53.516;49.424;2022-07-05T15:09:29;19.87;44.32
67547;HTU21D;54381;53.516;49.424;2022-07-05T15:11:59;19.88;43.56
67547;HTU21D;54381;53.516;49.424;2022-07-05T15:14:28;19.84;43.62
67547;HTU21D;54381;53.516;49.424;2022-07-05T15:17:03;19.91;48.73
67547;HTU21D;54381;53.516;49.424;2022-07-05T15:19:42;20.03;44.36
67547;HTU21D;54381;53.516;49.424;2022-07-05T15:22:26;20.10;44.06
67547;HTU21D;54381;53.516;49.424;2022-07-05T15:24:59;19.95;43.19
67547;HTU21D;54381;53.516;49.424;2022-07-05T15:27:35;19.85;44.29
67547;HTU21D;54381;53.516;49.424;2022-07-05T15:30:08;19.91;46.54
67547;HTU21D;54381;53.516;49.424;2022-07-05T15:32:36;19.92;44.43
67547;HTU21D;54381;53.516;49.424;2022-07-05T15:35:26;19.87;44.45
67547;HTU21D;54381;53.516;49.424;2022-07-05T15:37:52;19.79;44.17
67547;HTU21D;54381;53.516;49.424;2022-07-05T15:40:18;19.69;44.58
67547;HTU21D;54381;53.516;49.424;2022-07-05T15:42:44;19.79;48.36
67547;HTU21D;54381;53.516;49.424;2022-07-05T15:45:10;19.83;46.31
67547;HTU21D;54381;53.516;49.424;2022-07-05T15:47:37;19.99;45.99
67547;HTU21D;54381;53.516;49.424;2022-07-05T15:50:09;19.88;44.26
67547;HTU21D;54381;53.516;49.424;2022-07-05T15:52:37;19.97;45.46
67547;HTU21D;54381;53.516;49.424;2022-07-05T15:55:04;19.85;44.54
67547;HTU21D;54381;53.516;49.424;2022-07-05T15:57:30;19.57;45.37